Pagrindinis puslapis
METAR-TAF:

METAR-TAF

Oro uostai :

La Pasas, Bolivija

platuma: 16-31S, ilguma: 068-11W, Aukštis: 4058 m

Dabartinis oras

Ataskaita buvo paskelbta 43 minutes, ne 03:00 UTC
Vėjas 6 kt iš Vakarų
Temperatūra 5°C
Drėgmė 20%
Slėgis 1036 hPa
Matomumas 10 km arba daugiau

METAR: SLLP 160300Z 27006KT 9999 NSC 05/M16 Q1036

Laikas: 23:43 (03:43 UTC)

Prognozė

Ataskaita buvo paskelbta 5 valandos ir 43 minutes, ne 22:00 UTC
Prognozė galioja nuo 16 metu 00 UTC su 16 metu 24 UTC
Vėjas 5 kt iš Šiaurės Rytų
Matomumas 10 km arba daugiau
Tapsmas
nuo 16 metu 14 UTC su 16 metu 16 UTC
Vėjas 10 kt iš Vakarų
Laikinai
nuo 16 metu 18 UTC su 16 metu 22 UTC
Vėjas 15 kt iš Vakarų/Šiaurės Vakarų su gūsio iki 25 kt

TAF: SLLP 152200Z 1600/1624 05005KT 9999 NSC TX17/1619Z TNM04/1611Z BECMG 1614/1616 26010KT TEMPO 1618/1622 29015G25KT

Orai ataskaitas ir orų prognozės (METAR, TAF).

turimą stotys yra geltonos ir raudonos taškus žemėlapyje.

Perkelti pele per norėdami pamatyti stoties vardą.

Tada spustelėkite, norėdami matyti oro stebėjimo ir prognozės.

Norėdami pakeisti žemėlapį: spustelėkite ant žalios mygtukų su juodo kryžiaus žemyn,; žalią mygtuką su brūkšneliu, jei norite nutolinti; arba žalių rodyklių gretimoms žemėlapius.


METAR-TAF: